In Rescue
 
Open Full Screen Window  High Contrast Mode
Wind Gusting 00 knots
03
August 12, 2020 1:52 AM CDT
Weather Information
Wind Direction
  150 °
Wind Speed
  03 kt (3 mph)
Wind Gust
  00 kt (0 mph)
Altimeter
29.97 in
Visibility
10 SM
Temperature
17° C
63° F
Dewpoint
16° C
61° F
Humidity
94%
1hr Rain Fall
00.00 in.
24hr Rain Fall
00.00 in.
Sky Condition
Clear
VFR

METAR KBJI 120652Z AUTO 15003KT 10SM CLR 17/16 A2997 RMK AO2 T01740157

FAA Disclaimer: The data displayed is for advisory purposes only and is not to be used for flight planning or operations.